Terminal Aerodrome Forecast
Issued by NWS

Home | Current Version | Previous Version | Text Only | Print | Product List | Glossary On
Versions: 1 2 3 4 5 6 7 8 9 10 11 12 13 14 15 16 17
000
FTUS45 KPIH 191100
TAFSUN
TAF
KSUN 191120Z 1912/2012 33011KT P6SM BKN180
     FM191700 14006KT P6SM FEW050 SCT120
     FM200300 32008KT P6SM SCT120
      AMD LTD TO CLD VIS AND WIND TIL 191300=

USA.gov is the U.S. government's official web portal to all federal, state and local government web resources and services.